Time;durP1;ratioP1;P1;durP2;ratioP2;P2;SDS_P1;SDS_P2;PMS_P1;PMS_P2;Temp;Humidity;BMP_temperature;BMP_pressure;BME280_temperature;BME280_humidity;BME280_pressure;Samples;Min_cycle;Max_cycle;Signal;HPM_P1;HPM_P2
2023/12/15 00:00:24;;;;;;;13.27;9.60;;;;;;;;;;5057728;28;20203;-68
2023/12/15 00:02:51;;;;;;;11.67;9.30;;;;;;;;;;5058657;28;20215;-68
2023/12/15 00:05:18;;;;;;;12.37;9.37;;;;;;;;;;5063585;28;20210;-67
2023/12/15 00:07:45;;;;;;;11.97;9.60;;;;;;;;;;5064165;28;20199;-68
2023/12/15 00:10:14;;;;;;;10.97;8.60;;;;;;;;;;5060468;28;20206;-68
2023/12/15 00:12:41;;;;;;;11.50;8.83;;;;;;;;;;5061286;28;20205;-69
2023/12/15 00:15:08;;;;;;;10.97;9.00;;;;;;;;;;5061304;28;20229;-68
2023/12/15 00:17:36;;;;;;;12.67;9.63;;;;;;;;;;5060222;28;20382;-68
2023/12/15 00:20:03;;;;;;;13.73;10.03;;;;;;;;;;5060736;28;20210;-68
2023/12/15 00:22:30;;;;;;;12.70;9.63;;;;;;;;;;5063497;28;20264;-68
2023/12/15 00:24:57;;;;;;;9.57;8.33;;;;;;;;;;5063358;28;20202;-68
2023/12/15 00:27:26;;;;;;;11.40;9.23;;;;;;;;;;5061361;28;20204;-67
2023/12/15 00:29:53;;;;;;;13.60;9.73;;;;;;;;;;5062904;28;20198;-68
2023/12/15 00:32:20;;;;;;;13.57;9.80;;;;;;;;;;5056591;28;20202;-68
2023/12/15 00:34:47;;;;;;;13.57;9.67;;;;;;;;;;5057683;28;20225;-68
2023/12/15 00:37:14;;;;;;;11.27;9.70;;;;;;;;;;5060544;28;20207;-68
2023/12/15 00:39:42;;;;;;;13.20;10.03;;;;;;;;;;5061962;28;20214;-68
2023/12/15 00:42:09;;;;;;;13.47;10.33;;;;;;;;;;5057431;28;20632;-68
2023/12/15 00:44:37;;;;;;;13.87;9.80;;;;;;;;;;5059505;28;20203;-68
2023/12/15 00:47:04;;;;;;;13.37;9.67;;;;;;;;;;5059929;28;20199;-68
2023/12/15 00:49:31;;;;;;;15.07;10.70;;;;;;;;;;5062932;28;20207;-68
2023/12/15 00:51:59;;;;;;;12.40;9.67;;;;;;;;;;5062118;28;20205;-68
2023/12/15 00:54:26;;;;;;;15.53;9.90;;;;;;;;;;5062257;28;20206;-68
2023/12/15 00:56:53;;;;;;;13.67;9.83;;;;;;;;;;5058368;28;20215;-68
2023/12/15 00:59:20;;;;;;;11.73;9.77;;;;;;;;;;5061091;28;20205;-68
2023/12/15 01:01:48;;;;;;;13.30;10.17;;;;;;;;;;5061062;28;20216;-67
2023/12/15 01:04:15;;;;;;;11.23;9.50;;;;;;;;;;5060288;28;20213;-68
2023/12/15 01:06:43;;;;;;;12.50;10.50;;;;;;;;;;5057578;28;20206;-67
2023/12/15 01:09:10;;;;;;;12.77;10.23;;;;;;;;;;5060129;28;20203;-68
2023/12/15 01:11:37;;;;;;;12.40;10.33;;;;;;;;;;5062645;28;20210;-67
2023/12/15 01:14:04;;;;;;;11.77;9.63;;;;;;;;;;5061588;28;20207;-67
2023/12/15 01:16:31;;;;;;;13.83;10.40;;;;;;;;;;5066213;28;20230;-68
2023/12/15 01:18:59;;;;;;;13.47;10.43;;;;;;;;;;5067965;28;20225;-68
2023/12/15 01:21:26;;;;;;;12.83;10.10;;;;;;;;;;5061085;28;20203;-66
2023/12/15 01:23:54;;;;;;;12.00;9.80;;;;;;;;;;5060687;28;20202;-68
2023/12/15 01:26:21;;;;;;;12.93;10.40;;;;;;;;;;5057515;28;20209;-68
2023/12/15 01:28:48;;;;;;;13.40;9.77;;;;;;;;;;5053659;28;20209;-67
2023/12/15 01:31:15;;;;;;;12.63;10.33;;;;;;;;;;5061476;28;20199;-68
2023/12/15 01:33:42;;;;;;;14.97;10.57;;;;;;;;;;5062336;28;20221;-68
2023/12/15 01:36:11;;;;;;;13.83;10.67;;;;;;;;;;5060724;28;20223;-68
2023/12/15 01:38:38;;;;;;;13.67;10.13;;;;;;;;;;5059012;28;20203;-68
2023/12/15 01:41:06;;;;;;;15.03;10.73;;;;;;;;;;5059824;28;20199;-62
2023/12/15 01:43:33;;;;;;;9.97;8.77;;;;;;;;;;5057250;28;20506;-68
2023/12/15 01:46:00;;;;;;;14.07;10.27;;;;;;;;;;5060123;28;20206;-68
2023/12/15 01:48:27;;;;;;;15.10;10.37;;;;;;;;;;5059959;28;20210;-68
2023/12/15 01:50:54;;;;;;;15.20;9.93;;;;;;;;;;5063532;28;20236;-68
2023/12/15 01:53:23;;;;;;;13.07;10.10;;;;;;;;;;5063745;28;20209;-67
2023/12/15 01:55:50;;;;;;;15.63;10.80;;;;;;;;;;5062332;28;20227;-68
2023/12/15 01:58:17;;;;;;;12.23;10.47;;;;;;;;;;5065528;28;20213;-68
2023/12/15 02:00:47;;;;;;;15.10;10.57;;;;;;;;;;5061820;28;20209;-67
2023/12/15 02:03:14;;;;;;;11.67;9.47;;;;;;;;;;5062054;28;20199;-68
2023/12/15 02:05:41;;;;;;;13.90;10.40;;;;;;;;;;5058117;28;20206;-68
2023/12/15 02:08:09;;;;;;;14.70;11.00;;;;;;;;;;5058568;28;20206;-68
2023/12/15 02:10:39;;;;;;;12.63;10.17;;;;;;;;;;5062299;28;20206;-67
2023/12/15 02:13:06;;;;;;;12.07;9.70;;;;;;;;;;5061911;28;20214;-68
2023/12/15 02:15:34;;;;;;;13.97;10.70;;;;;;;;;;5065765;28;20230;-68
2023/12/15 02:18:01;;;;;;;14.63;10.30;;;;;;;;;;5065499;28;20204;-68
2023/12/15 02:20:28;;;;;;;11.67;9.50;;;;;;;;;;5063438;28;20205;-68
2023/12/15 02:22:57;;;;;;;10.23;9.13;;;;;;;;;;5062319;28;20290;-68
2023/12/15 02:25:24;;;;;;;13.27;10.70;;;;;;;;;;5062682;28;20199;-68
2023/12/15 02:27:53;;;;;;;14.00;10.63;;;;;;;;;;5138389;22;20241;-63
2023/12/15 02:30:20;;;;;;;13.10;10.43;;;;;;;;;;5043542;28;20203;-62
2023/12/15 02:32:47;;;;;;;13.17;10.40;;;;;;;;;;5044227;28;20207;-64
2023/12/15 02:35:14;;;;;;;14.77;11.17;;;;;;;;;;5047148;28;20215;-63
2023/12/15 02:37:41;;;;;;;15.37;12.27;;;;;;;;;;5049032;28;20212;-63
2023/12/15 02:40:10;;;;;;;16.77;11.97;;;;;;;;;;5048246;28;20196;-62
2023/12/15 02:42:37;;;;;;;16.87;11.70;;;;;;;;;;5044795;28;20219;-63
2023/12/15 02:45:05;;;;;;;13.70;11.43;;;;;;;;;;5039740;28;20203;-63
2023/12/15 02:47:32;;;;;;;13.37;11.90;;;;;;;;;;5046322;28;20507;-63
2023/12/15 02:49:59;;;;;;;13.10;10.40;;;;;;;;;;5043845;28;20227;-62
2023/12/15 02:52:26;;;;;;;14.87;12.50;;;;;;;;;;5043201;28;20208;-64
2023/12/15 02:54:53;;;;;;;14.90;11.87;;;;;;;;;;5044325;28;20204;-63
2023/12/15 02:57:22;;;;;;;15.00;11.70;;;;;;;;;;5044295;28;20207;-62
2023/12/15 02:59:49;;;;;;;14.53;11.90;;;;;;;;;;5043230;28;20199;-63
2023/12/15 03:02:16;;;;;;;14.63;12.43;;;;;;;;;;5043332;28;20213;-63
2023/12/15 03:04:43;;;;;;;14.03;11.23;;;;;;;;;;5045989;28;20286;-63
2023/12/15 03:07:10;;;;;;;14.50;11.47;;;;;;;;;;5045463;28;20200;-62
2023/12/15 03:09:37;;;;;;;15.43;11.97;;;;;;;;;;5040320;28;20311;-64
2023/12/15 03:12:05;;;;;;;15.77;11.67;;;;;;;;;;5041927;28;20200;-62
2023/12/15 03:14:33;;;;;;;13.20;11.57;;;;;;;;;;5040487;28;20207;-63
2023/12/15 03:17:00;;;;;;;15.87;12.10;;;;;;;;;;5044284;28;20238;-62
2023/12/15 03:19:28;;;;;;;15.83;12.47;;;;;;;;;;5039268;28;20199;-62
2023/12/15 03:21:55;;;;;;;15.77;11.83;;;;;;;;;;5041469;28;20200;-63
2023/12/15 03:24:22;;;;;;;18.67;13.13;;;;;;;;;;5042327;28;20207;-62
2023/12/15 03:26:49;;;;;;;16.07;12.80;;;;;;;;;;5041609;28;20191;-62
2023/12/15 03:29:16;;;;;;;13.63;11.83;;;;;;;;;;5040027;28;20236;-63
2023/12/15 03:31:45;;;;;;;18.60;13.20;;;;;;;;;;5041612;28;20209;-64
2023/12/15 03:34:12;;;;;;;15.40;12.63;;;;;;;;;;5042253;28;20211;-63
2023/12/15 03:36:39;;;;;;;20.07;13.70;;;;;;;;;;5043003;28;20227;-62
2023/12/15 03:39:07;;;;;;;17.63;13.13;;;;;;;;;;5043085;28;20302;-63
2023/12/15 03:41:34;;;;;;;21.60;14.10;;;;;;;;;;5042843;28;20203;-67
2023/12/15 03:44:01;;;;;;;19.80;13.67;;;;;;;;;;5042073;28;20206;-67
2023/12/15 03:46:28;;;;;;;17.10;13.17;;;;;;;;;;5040042;28;20203;-68
2023/12/15 03:48:57;;;;;;;18.90;13.83;;;;;;;;;;5042628;28;20218;-67
2023/12/15 03:51:24;;;;;;;19.10;13.00;;;;;;;;;;5040621;28;20212;-67
2023/12/15 03:53:51;;;;;;;19.00;13.07;;;;;;;;;;5041193;28;20206;-68
2023/12/15 03:56:25;;;;;;;16.23;12.43;;;;;;;;;;5039442;28;20282;-66
2023/12/15 03:58:52;;;;;;;16.43;12.67;;;;;;;;;;5041417;28;20269;-68
2023/12/15 04:01:19;;;;;;;14.43;12.63;;;;;;;;;;5043158;28;20204;-68
2023/12/15 04:03:46;;;;;;;14.20;11.87;;;;;;;;;;5041706;28;20211;-67
2023/12/15 04:06:15;;;;;;;14.43;11.63;;;;;;;;;;5044047;28;20277;-67
2023/12/15 04:08:42;;;;;;;15.77;11.87;;;;;;;;;;5043901;28;20208;-68
2023/12/15 04:11:09;;;;;;;15.97;11.20;;;;;;;;;;5041198;28;20273;-67
2023/12/15 04:13:37;;;;;;;15.30;11.67;;;;;;;;;;5043231;28;20222;-67
2023/12/15 04:16:05;;;;;;;14.33;11.10;;;;;;;;;;5040822;28;20227;-67
2023/12/15 04:18:32;;;;;;;14.43;11.50;;;;;;;;;;5042161;28;20285;-67
2023/12/15 04:21:00;;;;;;;15.00;11.57;;;;;;;;;;5042613;28;20215;-67
2023/12/15 04:23:28;;;;;;;15.57;12.17;;;;;;;;;;5041961;28;20203;-67
2023/12/15 04:25:58;;;;;;;15.00;11.27;;;;;;;;;;5040921;28;20196;-68
2023/12/15 04:28:25;;;;;;;17.77;11.20;;;;;;;;;;5041551;28;20305;-68
2023/12/15 04:30:52;;;;;;;14.17;11.60;;;;;;;;;;5044472;28;20204;-67
2023/12/15 04:33:19;;;;;;;17.17;12.27;;;;;;;;;;5040977;28;20273;-68
2023/12/15 04:35:46;;;;;;;16.20;12.00;;;;;;;;;;5040915;28;20227;-67
2023/12/15 04:38:13;;;;;;;16.53;12.20;;;;;;;;;;5041284;28;20203;-68
2023/12/15 04:40:42;;;;;;;15.90;11.77;;;;;;;;;;5043547;28;20358;-68
2023/12/15 04:43:09;;;;;;;18.80;12.63;;;;;;;;;;5043554;28;20203;-68
2023/12/15 04:45:36;;;;;;;15.07;11.63;;;;;;;;;;5043268;28;20207;-67
2023/12/15 04:48:04;;;;;;;20.40;12.87;;;;;;;;;;5039347;28;20202;-68
2023/12/15 04:50:31;;;;;;;16.47;11.80;;;;;;;;;;5039968;28;20294;-67
2023/12/15 04:52:58;;;;;;;15.60;11.60;;;;;;;;;;5042570;28;20210;-62
2023/12/15 04:55:25;;;;;;;17.60;11.80;;;;;;;;;;5040739;28;20211;-63
2023/12/15 04:57:53;;;;;;;16.83;11.67;;;;;;;;;;5043898;28;20230;-62
2023/12/15 05:00:21;;;;;;;15.83;12.27;;;;;;;;;;5040273;28;20199;-63
2023/12/15 05:02:48;;;;;;;14.07;10.50;;;;;;;;;;5042357;28;20199;-64
2023/12/15 05:05:15;;;;;;;13.97;10.97;;;;;;;;;;5043321;28;20200;-63
2023/12/15 05:07:42;;;;;;;14.00;10.80;;;;;;;;;;5040605;28;20207;-63
2023/12/15 05:10:09;;;;;;;13.73;10.40;;;;;;;;;;5041367;28;20210;-62
2023/12/15 05:12:37;;;;;;;15.07;10.40;;;;;;;;;;5040809;28;20558;-62
2023/12/15 05:15:06;;;;;;;12.07;10.23;;;;;;;;;;5045262;28;20203;-63
2023/12/15 05:17:33;;;;;;;14.37;10.63;;;;;;;;;;5042761;28;20227;-63
2023/12/15 05:20:01;;;;;;;15.43;10.60;;;;;;;;;;5043611;28;20215;-63
2023/12/15 05:22:29;;;;;;;12.67;9.43;;;;;;;;;;5045207;28;20208;-63
2023/12/15 05:24:56;;;;;;;13.97;10.70;;;;;;;;;;5049120;28;20200;-62
2023/12/15 05:27:24;;;;;;;11.93;9.90;;;;;;;;;;5044374;28;20213;-63
2023/12/15 05:29:51;;;;;;;14.80;11.10;;;;;;;;;;5046509;28;20207;-64
2023/12/15 05:32:19;;;;;;;12.33;9.70;;;;;;;;;;5047387;28;20199;-63
2023/12/15 05:34:46;;;;;;;16.07;9.43;;;;;;;;;;5043292;28;20204;-62
2023/12/15 05:37:14;;;;;;;11.30;9.20;;;;;;;;;;5044188;28;20231;-63
2023/12/15 05:39:44;;;;;;;13.43;10.00;;;;;;;;;;5043104;28;20220;-63
2023/12/15 05:42:11;;;;;;;13.60;10.70;;;;;;;;;;5044584;28;20305;-63
2023/12/15 05:44:39;;;;;;;12.73;9.77;;;;;;;;;;5045906;28;20214;-63
2023/12/15 05:47:06;;;;;;;12.73;9.63;;;;;;;;;;5044999;28;20203;-63
2023/12/15 05:49:35;;;;;;;12.53;9.40;;;;;;;;;;5048173;28;20230;-62
2023/12/15 05:52:02;;;;;;;14.20;9.90;;;;;;;;;;5046383;28;20203;-63
2023/12/15 05:54:29;;;;;;;13.27;10.10;;;;;;;;;;5041947;28;20200;-63
2023/12/15 05:56:56;;;;;;;12.47;9.50;;;;;;;;;;5046312;28;20222;-63
2023/12/15 05:59:23;;;;;;;12.47;10.27;;;;;;;;;;5047585;28;20571;-62
2023/12/15 06:01:50;;;;;;;13.40;9.67;;;;;;;;;;5044813;28;20202;-67
2023/12/15 06:04:17;;;;;;;11.50;10.10;;;;;;;;;;5046342;28;20203;-68
2023/12/15 06:06:46;;;;;;;12.20;9.63;;;;;;;;;;5048982;28;20192;-68
2023/12/15 06:09:13;;;;;;;13.00;10.00;;;;;;;;;;5042649;28;20206;-68
2023/12/15 06:11:41;;;;;;;13.87;10.93;;;;;;;;;;5047591;28;20225;-68
2023/12/15 06:14:08;;;;;;;12.90;10.33;;;;;;;;;;5042029;28;20199;-68
2023/12/15 06:16:35;;;;;;;14.73;11.53;;;;;;;;;;5043387;28;20234;-68
2023/12/15 06:19:02;;;;;;;15.90;11.13;;;;;;;;;;5047311;28;20200;-68
2023/12/15 06:21:30;;;;;;;14.27;11.10;;;;;;;;;;5046668;28;20207;-68
2023/12/15 06:23:58;;;;;;;16.23;12.90;;;;;;;;;;5047417;28;20214;-67
2023/12/15 06:26:26;;;;;;;14.93;11.63;;;;;;;;;;5046773;28;20230;-67
2023/12/15 06:28:54;;;;;;;15.97;11.57;;;;;;;;;;5007271;28;1057797;-67
2023/12/15 06:31:22;;;;;;;14.40;11.37;;;;;;;;;;5037111;28;20231;-67
2023/12/15 06:33:49;;;;;;;15.23;11.43;;;;;;;;;;5034001;28;20204;-67
2023/12/15 06:36:16;;;;;;;15.23;12.27;;;;;;;;;;5045618;28;20195;-68
2023/12/15 06:38:44;;;;;;;14.70;12.00;;;;;;;;;;5047200;28;20226;-68
2023/12/15 06:41:13;;;;;;;14.57;11.23;;;;;;;;;;5042884;28;20203;-68
2023/12/15 06:43:40;;;;;;;14.60;12.33;;;;;;;;;;5048989;28;20204;-68
2023/12/15 06:46:07;;;;;;;16.97;12.07;;;;;;;;;;5042689;28;20210;-68
2023/12/15 06:48:35;;;;;;;21.47;17.17;;;;;;;;;;5039704;28;20202;-68
2023/12/15 06:51:02;;;;;;;21.77;16.93;;;;;;;;;;5037387;28;20204;-67
2023/12/15 06:53:29;;;;;;;18.87;13.57;;;;;;;;;;5040112;28;20207;-67
2023/12/15 06:55:58;;;;;;;18.43;12.60;;;;;;;;;;5036380;28;20203;-68
2023/12/15 06:58:27;;;;;;;17.77;12.67;;;;;;;;;;5047417;28;20253;-68
2023/12/15 07:00:54;;;;;;;19.87;13.23;;;;;;;;;;5044673;28;20497;-67
2023/12/15 07:03:21;;;;;;;17.47;12.97;;;;;;;;;;5047150;28;20203;-68
2023/12/15 07:05:48;;;;;;;18.10;13.23;;;;;;;;;;5047753;28;20208;-66
2023/12/15 07:08:15;;;;;;;19.10;12.97;;;;;;;;;;5046638;28;20285;-68
2023/12/15 07:10:42;;;;;;;18.47;13.03;;;;;;;;;;5044779;28;20214;-68
2023/12/15 07:13:10;;;;;;;21.37;13.50;;;;;;;;;;5046955;28;20258;-62
2023/12/15 07:15:38;;;;;;;17.13;11.90;;;;;;;;;;5043854;28;20199;-64
2023/12/15 07:18:05;;;;;;;16.13;11.53;;;;;;;;;;5046998;28;20226;-63
2023/12/15 07:20:33;;;;;;;16.20;12.50;;;;;;;;;;5044196;28;20354;-63
2023/12/15 07:23:00;;;;;;;21.20;13.90;;;;;;;;;;5041459;28;20192;-63
2023/12/15 07:25:27;;;;;;;18.57;11.87;;;;;;;;;;5045578;28;20210;-62
2023/12/15 07:27:55;;;;;;;20.67;11.17;;;;;;;;;;5028826;28;20230;-62
2023/12/15 07:30:22;;;;;;;18.47;12.80;;;;;;;;;;5041931;28;20227;-63
2023/12/15 07:32:51;;;;;;;17.93;12.10;;;;;;;;;;5048479;28;20269;-62
2023/12/15 07:35:21;;;;;;;17.33;11.43;;;;;;;;;;5045803;28;20203;-62
2023/12/15 07:37:55;;;;;;;16.53;12.50;;;;;;;;;;5046383;28;20232;-63
2023/12/15 07:40:23;;;;;;;14.93;11.40;;;;;;;;;;5044871;28;20206;-63
2023/12/15 07:42:53;;;;;;;16.63;11.77;;;;;;;;;;5046526;28;20219;-62
2023/12/15 07:45:20;;;;;;;17.97;12.70;;;;;;;;;;5039943;28;20283;-62
2023/12/15 07:47:47;;;;;;;17.30;12.43;;;;;;;;;;5044109;28;20218;-62
2023/12/15 07:50:16;;;;;;;16.67;12.50;;;;;;;;;;5043897;28;20195;-63
2023/12/15 07:52:43;;;;;;;20.80;12.97;;;;;;;;;;5046589;28;20196;-63
2023/12/15 07:55:11;;;;;;;17.43;12.43;;;;;;;;;;5044128;28;20200;-63
2023/12/15 07:57:39;;;;;;;17.23;12.00;;;;;;;;;;5042422;28;20223;-64
2023/12/15 08:00:06;;;;;;;20.47;12.33;;;;;;;;;;5043427;28;20242;-63
2023/12/15 08:02:33;;;;;;;19.93;11.93;;;;;;;;;;5045297;28;20235;-62
2023/12/15 08:05:01;;;;;;;17.00;12.07;;;;;;;;;;5045888;28;20199;-63
2023/12/15 08:07:29;;;;;;;21.70;13.77;;;;;;;;;;5043700;28;20192;-62
2023/12/15 08:09:56;;;;;;;16.80;12.13;;;;;;;;;;5046526;28;20203;-62
2023/12/15 08:12:23;;;;;;;18.30;11.67;;;;;;;;;;5042187;28;20207;-62
2023/12/15 08:14:50;;;;;;;19.83;12.07;;;;;;;;;;5045137;28;20205;-63
2023/12/15 08:17:17;;;;;;;17.20;12.50;;;;;;;;;;5043071;28;20223;-62
2023/12/15 08:19:44;;;;;;;18.90;12.83;;;;;;;;;;5040755;28;20203;-62
2023/12/15 08:22:12;;;;;;;15.50;12.53;;;;;;;;;;5043171;28;20206;-63
2023/12/15 08:24:42;;;;;;;17.53;12.43;;;;;;;;;;5044939;28;20199;-62
2023/12/15 08:27:09;;;;;;;19.03;12.67;;;;;;;;;;5045005;28;20207;-62
2023/12/15 08:29:36;;;;;;;17.17;12.73;;;;;;;;;;5039391;28;20238;-64
2023/12/15 08:32:02;;;;;;;17.00;12.20;;;;;;;;;;5042720;28;20210;-64
2023/12/15 08:34:30;;;;;;;15.37;12.00;;;;;;;;;;5040883;28;20196;-62
2023/12/15 08:36:57;;;;;;;16.93;11.77;;;;;;;;;;5043359;28;20195;-64
2023/12/15 08:39:24;;;;;;;17.63;12.20;;;;;;;;;;5043874;28;20214;-62
2023/12/15 08:41:52;;;;;;;18.00;12.00;;;;;;;;;;5047403;28;20200;-62
2023/12/15 08:44:20;;;;;;;15.90;11.90;;;;;;;;;;5044892;28;20203;-63
2023/12/15 08:46:47;;;;;;;16.97;12.33;;;;;;;;;;5043826;28;20218;-63
2023/12/15 08:49:14;;;;;;;18.13;11.90;;;;;;;;;;5045795;28;20230;-62
2023/12/15 08:51:41;;;;;;;15.70;11.23;;;;;;;;;;5044690;28;20203;-62
2023/12/15 08:54:08;;;;;;;14.60;11.10;;;;;;;;;;5046546;28;20195;-63
2023/12/15 08:56:35;;;;;;;15.30;11.20;;;;;;;;;;5046634;28;20204;-62
2023/12/15 08:59:04;;;;;;;17.13;11.73;;;;;;;;;;5042144;28;20254;-62
2023/12/15 09:01:33;;;;;;;16.17;11.07;;;;;;;;;;5040121;28;20203;-63
2023/12/15 09:04:00;;;;;;;18.67;11.60;;;;;;;;;;5037223;28;20208;-62
2023/12/15 09:06:27;;;;;;;16.80;11.57;;;;;;;;;;5040313;28;20215;-65
2023/12/15 09:08:55;;;;;;;17.10;11.67;;;;;;;;;;5034674;28;20202;-64
2023/12/15 09:11:22;;;;;;;13.70;10.67;;;;;;;;;;5043655;28;20196;-62
2023/12/15 09:13:49;;;;;;;18.63;11.97;;;;;;;;;;5041018;28;20203;-62
2023/12/15 09:16:17;;;;;;;17.63;11.93;;;;;;;;;;5045281;28;20201;-62
2023/12/15 09:18:45;;;;;;;17.90;11.57;;;;;;;;;;5043890;28;20234;-62
2023/12/15 09:21:12;;;;;;;15.17;11.63;;;;;;;;;;5042725;28;20213;-62
2023/12/15 09:23:39;;;;;;;16.17;11.23;;;;;;;;;;5044935;28;20203;-62
2023/12/15 09:26:06;;;;;;;19.37;12.10;;;;;;;;;;5043589;28;20262;-63
2023/12/15 09:28:34;;;;;;;15.27;11.60;;;;;;;;;;5041936;28;20243;-63
2023/12/15 09:31:01;;;;;;;16.33;11.90;;;;;;;;;;5043371;28;20200;-62
2023/12/15 09:33:29;;;;;;;19.10;12.40;;;;;;;;;;5040130;28;20200;-62
2023/12/15 09:35:56;;;;;;;18.40;12.33;;;;;;;;;;5042851;28;20198;-63
2023/12/15 09:38:24;;;;;;;17.53;11.63;;;;;;;;;;5039442;28;20207;-62
2023/12/15 09:40:51;;;;;;;16.47;11.07;;;;;;;;;;5044393;28;20202;-63
2023/12/15 09:43:18;;;;;;;18.07;11.90;;;;;;;;;;5040789;28;20227;-62
2023/12/15 09:45:46;;;;;;;16.90;10.67;;;;;;;;;;5044639;28;20214;-62
2023/12/15 09:48:14;;;;;;;15.83;11.57;;;;;;;;;;5047797;28;20202;-63
2023/12/15 09:50:46;;;;;;;13.47;10.47;;;;;;;;;;5046917;28;20199;-63
2023/12/15 09:53:13;;;;;;;14.60;10.90;;;;;;;;;;5041277;28;20200;-62
2023/12/15 09:55:40;;;;;;;15.07;10.70;;;;;;;;;;5042216;28;20208;-63
2023/12/15 09:58:08;;;;;;;13.53;10.47;;;;;;;;;;5041695;28;20299;-61
2023/12/15 10:00:35;;;;;;;13.63;10.63;;;;;;;;;;5040453;28;20206;-62
2023/12/15 10:03:02;;;;;;;13.53;9.83;;;;;;;;;;5037550;28;20202;-62
2023/12/15 10:05:29;;;;;;;15.80;11.50;;;;;;;;;;5047664;28;20203;-63
2023/12/15 10:07:57;;;;;;;15.57;11.07;;;;;;;;;;5045156;28;20208;-62
2023/12/15 10:10:26;;;;;;;17.67;11.03;;;;;;;;;;5048120;28;20202;-62
2023/12/15 10:12:55;;;;;;;18.47;11.33;;;;;;;;;;5042549;28;20200;-61
2023/12/15 10:15:23;;;;;;;16.87;13.13;;;;;;;;;;5049872;28;20200;-62
2023/12/15 10:17:50;;;;;;;15.07;11.73;;;;;;;;;;5043228;28;20223;-62
2023/12/15 10:20:16;;;;;;;16.53;12.20;;;;;;;;;;5048051;28;20211;-62
2023/12/15 10:22:43;;;;;;;17.60;11.50;;;;;;;;;;5046020;28;20203;-62
2023/12/15 10:25:18;;;;;;;19.70;12.50;;;;;;;;;;5042873;28;20534;-62
2023/12/15 10:27:45;;;;;;;19.23;12.70;;;;;;;;;;5048850;28;20227;-62
2023/12/15 10:30:13;;;;;;;14.43;11.77;;;;;;;;;;5046451;28;20204;-62
2023/12/15 10:32:40;;;;;;;16.90;12.40;;;;;;;;;;5045575;28;20211;-63
2023/12/15 10:35:09;;;;;;;17.67;12.27;;;;;;;;;;5047160;28;20222;-62
2023/12/15 10:37:37;;;;;;;17.83;12.20;;;;;;;;;;5045935;28;20200;-62
2023/12/15 10:40:04;;;;;;;19.83;13.03;;;;;;;;;;5044861;28;20195;-62
2023/12/15 10:42:33;;;;;;;17.20;12.13;;;;;;;;;;5047061;28;20207;-63
2023/12/15 10:45:00;;;;;;;12.70;10.43;;;;;;;;;;5049029;28;20214;-63
2023/12/15 10:47:27;;;;;;;18.47;12.20;;;;;;;;;;5048126;28;20196;-63
2023/12/15 10:49:54;;;;;;;15.77;11.73;;;;;;;;;;5047698;28;20203;-62
2023/12/15 10:52:22;;;;;;;16.03;11.50;;;;;;;;;;5046406;28;20211;-63
2023/12/15 10:54:50;;;;;;;19.77;12.27;;;;;;;;;;5042994;28;20262;-63
2023/12/15 10:57:17;;;;;;;15.57;11.60;;;;;;;;;;5047605;28;20203;-64
2023/12/15 10:59:45;;;;;;;17.80;12.67;;;;;;;;;;5046832;28;20231;-64
2023/12/15 11:02:13;;;;;;;17.77;11.93;;;;;;;;;;5043970;28;20199;-63
2023/12/15 11:04:40;;;;;;;15.57;12.07;;;;;;;;;;5047443;28;20211;-63
2023/12/15 11:07:09;;;;;;;16.13;11.60;;;;;;;;;;5044790;28;20200;-62
2023/12/15 11:09:36;;;;;;;15.30;11.57;;;;;;;;;;5045466;28;20206;-62
2023/12/15 11:12:29;;;;;;;18.83;11.87;;;;;;;;;;5047022;28;20298;-63
2023/12/15 11:15:02;;;;;;;18.13;11.77;;;;;;;;;;5043076;28;20196;-63
2023/12/15 11:17:30;;;;;;;15.27;11.17;;;;;;;;;;5047377;28;20294;-62
2023/12/15 11:20:06;;;;;;;15.53;11.37;;;;;;;;;;5044995;28;20208;-62
2023/12/15 11:22:41;;;;;;;15.17;10.83;;;;;;;;;;5047084;28;20203;-63
2023/12/15 11:25:09;;;;;;;17.10;10.63;;;;;;;;;;5040495;28;20256;-64
2023/12/15 11:27:53;;;;;;;17.87;11.20;;;;;;;;;;5044319;28;20298;-64
2023/12/15 11:30:34;;;;;;;16.27;10.93;;;;;;;;;;5045978;28;20195;-62
2023/12/15 11:33:01;;;;;;;19.37;11.80;;;;;;;;;;5041386;28;20207;-63
2023/12/15 11:35:30;;;;;;;18.17;11.73;;;;;;;;;;5045773;28;20324;-63
2023/12/15 11:37:58;;;;;;;16.90;10.77;;;;;;;;;;5041084;28;20289;-64
2023/12/15 11:40:29;;;;;;;14.77;10.73;;;;;;;;;;5046420;28;20214;-64
2023/12/15 11:42:56;;;;;;;16.10;11.70;;;;;;;;;;5043966;28;20258;-63
2023/12/15 11:45:26;;;;;;;16.10;11.53;;;;;;;;;;5044509;28;20438;-63
2023/12/15 11:47:55;;;;;;;19.40;12.07;;;;;;;;;;5041693;28;20291;-62
2023/12/15 11:50:22;;;;;;;19.43;12.37;;;;;;;;;;5046054;28;20199;-63
2023/12/15 11:52:51;;;;;;;16.33;11.60;;;;;;;;;;5047662;28;20207;-62
2023/12/15 11:55:19;;;;;;;22.63;12.00;;;;;;;;;;5044980;28;20203;-63
2023/12/15 11:57:46;;;;;;;18.83;11.30;;;;;;;;;;5041700;28;20259;-63
2023/12/15 12:00:17;;;;;;;15.03;10.70;;;;;;;;;;5043583;28;20195;-63
2023/12/15 12:02:46;;;;;;;14.03;10.27;;;;;;;;;;5044053;28;20200;-64
2023/12/15 12:05:15;;;;;;;17.87;10.93;;;;;;;;;;5045918;28;20297;-63
2023/12/15 12:07:42;;;;;;;16.80;10.67;;;;;;;;;;5039273;28;20195;-63
2023/12/15 12:10:10;;;;;;;17.63;10.40;;;;;;;;;;5041424;28;20211;-63
2023/12/15 12:12:37;;;;;;;16.27;11.47;;;;;;;;;;5036381;28;20199;-63
2023/12/15 12:15:05;;;;;;;15.77;10.37;;;;;;;;;;5032688;28;20200;-64
2023/12/15 12:17:32;;;;;;;15.47;10.13;;;;;;;;;;5033827;28;20203;-62
2023/12/15 12:20:06;;;;;;;12.63;9.33;;;;;;;;;;5030622;28;20218;-63
2023/12/15 12:22:36;;;;;;;14.80;9.27;;;;;;;;;;5032930;28;20207;-62
2023/12/15 12:25:04;;;;;;;13.70;8.90;;;;;;;;;;5033456;28;20242;-63
2023/12/15 12:27:32;;;;;;;14.10;9.87;;;;;;;;;;5034053;28;20203;-63
2023/12/15 12:30:00;;;;;;;11.17;9.63;;;;;;;;;;5033125;28;20215;-64
2023/12/15 12:32:27;;;;;;;11.83;8.57;;;;;;;;;;5033764;28;20204;-63
2023/12/15 12:34:57;;;;;;;12.37;9.17;;;;;;;;;;5031309;28;20200;-62
2023/12/15 12:37:24;;;;;;;13.07;8.27;;;;;;;;;;5034077;28;20764;-64
2023/12/15 12:39:52;;;;;;;9.63;7.97;;;;;;;;;;5034798;28;20227;-65
2023/12/15 12:42:19;;;;;;;11.33;8.00;;;;;;;;;;5033651;28;20294;-64
2023/12/15 12:44:46;;;;;;;10.37;7.90;;;;;;;;;;5032982;28;20211;-64
2023/12/15 12:47:14;;;;;;;12.10;8.73;;;;;;;;;;5033321;28;20204;-65
2023/12/15 12:49:41;;;;;;;11.97;8.33;;;;;;;;;;5033749;28;20196;-62
2023/12/15 12:52:08;;;;;;;9.63;7.50;;;;;;;;;;5031837;28;20254;-63
2023/12/15 12:54:35;;;;;;;9.23;7.63;;;;;;;;;;5030352;28;20215;-64
2023/12/15 12:57:04;;;;;;;10.30;7.90;;;;;;;;;;5032719;28;20210;-64
2023/12/15 12:59:31;;;;;;;12.57;6.93;;;;;;;;;;5031898;28;20231;-63
2023/12/15 13:01:58;;;;;;;9.30;6.67;;;;;;;;;;5033962;28;20214;-63
2023/12/15 13:04:26;;;;;;;10.30;7.10;;;;;;;;;;5029527;28;20215;-63
2023/12/15 13:06:53;;;;;;;11.03;7.23;;;;;;;;;;5032491;28;20204;-63
2023/12/15 13:09:20;;;;;;;9.53;7.17;;;;;;;;;;5032042;28;20203;-64
2023/12/15 13:11:48;;;;;;;9.47;7.10;;;;;;;;;;5034228;28;20203;-62
2023/12/15 13:14:18;;;;;;;7.10;6.40;;;;;;;;;;5034770;28;20200;-63
2023/12/15 13:16:45;;;;;;;11.17;6.40;;;;;;;;;;5039828;28;20204;-62
2023/12/15 13:19:12;;;;;;;6.97;6.27;;;;;;;;;;5042791;28;20222;-62
2023/12/15 13:21:40;;;;;;;7.53;6.33;;;;;;;;;;5044684;28;20210;-63
2023/12/15 13:24:08;;;;;;;9.83;6.50;;;;;;;;;;5040469;28;20212;-62
2023/12/15 13:26:35;;;;;;;8.07;6.17;;;;;;;;;;5043845;28;20844;-62
2023/12/15 13:29:03;;;;;;;8.63;6.03;;;;;;;;;;5043628;28;20235;-64
2023/12/15 13:31:32;;;;;;;7.37;5.93;;;;;;;;;;5043524;28;20207;-63
2023/12/15 13:33:59;;;;;;;8.50;6.37;;;;;;;;;;5041414;28;20226;-62
2023/12/15 13:36:26;;;;;;;7.70;6.00;;;;;;;;;;5041964;28;20218;-62
2023/12/15 13:38:53;;;;;;;6.47;5.47;;;;;;;;;;5037556;28;20224;-63
2023/12/15 13:41:20;;;;;;;9.67;8.03;;;;;;;;;;5045918;28;20211;-63
2023/12/15 13:43:47;;;;;;;7.70;6.00;;;;;;;;;;5045760;28;20212;-63
2023/12/15 13:46:19;;;;;;;6.30;5.57;;;;;;;;;;5046147;28;20203;-62
2023/12/15 13:48:49;;;;;;;6.67;5.27;;;;;;;;;;5049117;28;20235;-62
2023/12/15 13:51:16;;;;;;;7.70;5.40;;;;;;;;;;5047786;28;20207;-63
2023/12/15 13:53:43;;;;;;;5.90;5.30;;;;;;;;;;5044683;28;20212;-62
2023/12/15 13:56:10;;;;;;;6.23;4.97;;;;;;;;;;5050107;28;20211;-63
2023/12/15 13:58:37;;;;;;;5.90;5.30;;;;;;;;;;5042674;28;20204;-62
2023/12/15 14:01:05;;;;;;;7.10;6.40;;;;;;;;;;5043191;28;20204;-65
2023/12/15 14:03:32;;;;;;;5.40;4.87;;;;;;;;;;5048069;28;20211;-62
2023/12/15 14:06:00;;;;;;;5.37;4.87;;;;;;;;;;5046261;28;20195;-62
2023/12/15 14:08:28;;;;;;;6.30;4.93;;;;;;;;;;5049001;28;20199;-64
2023/12/15 14:10:55;;;;;;;6.73;5.20;;;;;;;;;;5048476;28;20199;-62
2023/12/15 14:13:22;;;;;;;5.70;5.13;;;;;;;;;;5045319;28;20207;-67
2023/12/15 14:15:49;;;;;;;6.53;5.23;;;;;;;;;;5041040;28;20203;-67
2023/12/15 14:18:16;;;;;;;5.67;5.07;;;;;;;;;;5047151;28;20191;-67
2023/12/15 14:20:43;;;;;;;5.93;5.20;;;;;;;;;;5048496;28;20215;-67
2023/12/15 14:23:12;;;;;;;5.60;4.83;;;;;;;;;;5038935;28;20201;-67